Time;durP1;ratioP1;P1;durP2;ratioP2;P2;SDS_P1;SDS_P2;PMS_P1;PMS_P2;Temp;Humidity;BMP_temperature;BMP_pressure;BME280_temperature;BME280_humidity;BME280_pressure;Samples;Min_cycle;Max_cycle;Signal;HPM_P1;HPM_P2
2022/08/31 00:05:29;;;;;;;0.70;0.60;;;;;;;15.78;100.00;102506.47;5046593;28;20506;-72
2022/08/31 00:07:54;;;;;;;1.10;0.80;;;;;;;15.62;100.00;102516.69;5037167;28;20970;-71
2022/08/31 00:10:26;;;;;;;2.30;0.90;;;;;;;15.74;100.00;102518.72;5029402;28;20272;-71
2022/08/31 00:12:52;;;;;;;1.03;0.50;;;;;;;15.52;100.00;102503.47;5045504;28;20180;-72
2022/08/31 00:15:20;;;;;;;0.70;0.67;;;;;;;15.45;100.00;102521.47;5048857;28;20933;-71
2022/08/31 00:17:46;;;;;;;1.47;0.80;;;;;;;14.50;100.00;102362.94;5047978;28;20215;-71
2022/08/31 00:20:14;;;;;;;0.83;0.60;;;;;;;15.09;100.00;102444.75;5047612;28;20425;-72
2022/08/31 00:22:40;;;;;;;1.30;0.77;;;;;;;15.50;100.00;102519.88;5041823;28;20192;-71
2022/08/31 00:25:07;;;;;;;0.90;0.67;;;;;;;15.15;100.00;102465.59;5029201;28;20841;-71
2022/08/31 00:27:32;;;;;;;0.67;0.63;;;;;;;15.34;100.00;102520.94;5043253;28;20215;-72
2022/08/31 00:29:58;;;;;;;0.60;0.50;;;;;;;15.34;100.00;102510.13;5046217;28;20442;-71
2022/08/31 00:32:23;;;;;;;1.20;0.60;;;;;;;15.54;100.00;102517.66;5032611;28;20274;-71
2022/08/31 00:34:51;;;;;;;1.00;0.60;;;;;;;14.81;100.00;102414.03;5050703;28;20320;-72
2022/08/31 00:37:17;;;;;;;1.23;0.60;;;;;;;14.80;100.00;102409.69;5050469;28;20203;-71
2022/08/31 00:39:42;;;;;;;1.80;0.67;;;;;;;14.80;100.00;102439.41;5049853;28;20530;-71
2022/08/31 00:42:08;;;;;;;0.90;0.70;;;;;;;15.23;100.00;102513.31;5049077;28;20438;-71
2022/08/31 00:44:33;;;;;;;1.63;0.70;;;;;;;15.29;100.00;102511.72;5051959;28;20210;-71
2022/08/31 00:46:59;;;;;;;0.60;0.60;;;;;;;15.25;100.00;102516.69;5049807;28;20226;-71
2022/08/31 00:49:27;;;;;;;1.43;0.60;;;;;;;15.12;100.00;102489.47;5052227;28;20270;-71
2022/08/31 00:52:01;;;;;;;0.90;0.73;;;;;;;14.19;100.00;102364.81;5050238;28;20180;-71
2022/08/31 00:54:38;;;;;;;0.87;0.57;;;;;;;14.63;100.00;102427.94;5050453;28;20482;-72
2022/08/31 00:57:05;;;;;;;0.70;0.70;;;;;;;14.46;100.00;102409.22;5049671;28;20468;-72
2022/08/31 00:59:31;;;;;;;0.80;0.60;;;;;;;14.92;100.00;102533.28;5054058;28;20447;-71
2022/08/31 01:01:57;;;;;;;1.10;0.57;;;;;;;14.42;100.00;102404.38;5051349;28;20907;-71
2022/08/31 01:04:23;;;;;;;1.37;0.70;;;;;;;14.94;100.00;102521.47;5034717;28;20507;-72
2022/08/31 01:06:50;;;;;;;0.87;0.60;;;;;;;14.18;100.00;102373.94;5037267;28;20442;-71
2022/08/31 01:09:18;;;;;;;1.03;0.80;;;;;;;14.92;100.00;102510.81;5050616;28;20191;-72
2022/08/31 01:11:43;;;;;;;0.70;0.60;;;;;;;13.79;100.00;102350.69;5047716;28;20927;-71
2022/08/31 01:14:10;;;;;;;0.87;0.70;;;;;;;14.32;100.00;102460.47;5050292;28;20449;-71
2022/08/31 01:16:41;;;;;;;0.63;0.60;;;;;;;14.99;100.00;102525.28;5049693;28;20193;-71
2022/08/31 01:19:16;;;;;;;0.93;0.80;;;;;;;15.08;100.00;102524.16;5050073;28;20438;-71
2022/08/31 01:22:08;;;;;;;0.70;0.60;;;;;;;14.84;100.00;102516.31;5049465;28;20828;-71
2022/08/31 01:24:34;;;;;;;0.60;0.60;;;;;;;14.14;100.00;102421.19;5050122;28;20993;-71
2022/08/31 01:27:03;;;;;;;0.97;0.70;;;;;;;14.86;100.00;102534.03;5047607;28;20472;-71
2022/08/31 01:29:30;;;;;;;0.93;0.70;;;;;;;14.84;100.00;102525.28;5050718;28;21033;-71
2022/08/31 01:31:56;;;;;;;1.63;0.60;;;;;;;14.68;100.00;102538.97;5028028;28;20968;-72
2022/08/31 01:34:21;;;;;;;1.00;0.70;;;;;;;14.65;100.00;102528.53;5050802;28;20457;-71
2022/08/31 01:36:49;;;;;;;0.70;0.63;;;;;;;14.61;100.00;102546.09;5046119;28;20678;-71
2022/08/31 01:39:15;;;;;;;3.33;1.63;;;;;;;14.64;100.00;102530.41;5026142;28;20183;-71
2022/08/31 01:41:42;;;;;;;1.27;0.80;;;;;;;14.88;100.00;102542.78;5048196;28;20422;-71
2022/08/31 01:44:10;;;;;;;0.80;0.80;;;;;;;14.48;100.00;102473.81;5048811;28;20246;-72
2022/08/31 01:46:35;;;;;;;1.37;0.77;;;;;;;14.71;100.00;102538.59;5049671;28;20508;-71
2022/08/31 01:49:01;;;;;;;4.00;0.70;;;;;;;14.66;100.00;102541.84;5049032;28;20484;-71
2022/08/31 01:51:26;;;;;;;1.03;0.70;;;;;;;14.63;100.00;102530.56;5038493;28;20663;-71
2022/08/31 01:53:52;;;;;;;0.90;0.80;;;;;;;14.67;100.00;102538.13;5047838;28;20183;-71
2022/08/31 01:56:25;;;;;;;1.30;0.70;;;;;;;14.80;100.00;102542.88;5030505;28;20187;-71
2022/08/31 01:58:51;;;;;;;1.07;0.90;;;;;;;14.42;100.00;102523.97;5047662;28;20464;-71
2022/08/31 02:01:18;;;;;;;1.87;0.70;;;;;;;14.47;100.00;102543.19;5051212;28;20421;-71
2022/08/31 02:03:43;;;;;;;1.33;0.70;;;;;;;13.88;100.00;102405.41;5050508;28;20207;-71
2022/08/31 02:06:11;;;;;;;0.80;0.80;;;;;;;14.67;100.00;102546.22;5048240;28;20491;-71
2022/08/31 02:08:36;;;;;;;0.70;0.70;;;;;;;13.91;100.00;102429.31;5037862;28;20203;-71
2022/08/31 02:11:03;;;;;;;0.70;0.60;;;;;;;13.73;100.00;102448.53;5048527;28;20491;-71
2022/08/31 02:13:29;;;;;;;1.00;0.60;;;;;;;14.45;100.00;102539.81;5047472;28;20187;-71
2022/08/31 02:15:54;;;;;;;1.30;0.70;;;;;;;14.11;100.00;102505.19;5038837;28;20856;-71
2022/08/31 02:18:20;;;;;;;0.80;0.70;;;;;;;13.81;100.00;102425.22;5049610;28;20761;-71
2022/08/31 02:20:45;;;;;;;1.00;0.80;;;;;;;14.09;100.00;102484.81;5047899;28;20188;-71
2022/08/31 02:23:11;;;;;;;1.47;0.90;;;;;;;13.63;100.00;102417.44;5030996;28;20584;-71
2022/08/31 02:25:36;;;;;;;0.87;0.60;;;;;;;14.39;100.00;102550.50;5050708;28;20213;-71
2022/08/31 02:28:02;;;;;;;2.13;0.80;;;;;;;14.21;100.00;102529.25;5047577;28;20298;-72
2022/08/31 02:30:28;;;;;;;0.83;0.70;;;;;;;13.77;100.00;102465.19;5048418;28;20187;-71
2022/08/31 02:32:53;;;;;;;0.77;0.67;;;;;;;13.72;100.00;102462.19;5048442;28;20444;-71
2022/08/31 02:35:19;;;;;;;0.80;0.70;;;;;;;14.16;100.00;102539.75;5050054;28;20203;-71
2022/08/31 02:37:44;;;;;;;1.10;0.60;;;;;;;14.02;100.00;102503.59;5046415;28;20215;-71
2022/08/31 02:40:10;;;;;;;0.83;0.60;;;;;;;14.00;100.00;102482.22;5048865;28;20201;-71
2022/08/31 02:42:37;;;;;;;1.23;0.67;;;;;;;13.68;100.00;102458.16;5047075;28;20262;-71
2022/08/31 02:45:05;;;;;;;1.00;0.70;;;;;;;14.18;100.00;102554.75;5049293;28;20200;-71
2022/08/31 02:47:30;;;;;;;1.10;0.70;;;;;;;13.33;100.00;102434.31;5048256;28;20980;-71
2022/08/31 02:49:56;;;;;;;1.00;0.70;;;;;;;13.63;100.00;102464.13;5047297;28;20438;-71
2022/08/31 02:52:22;;;;;;;1.17;1.00;;;;;;;13.85;100.00;102558.69;5025187;28;20188;-71
2022/08/31 02:54:47;;;;;;;0.90;0.73;;;;;;;13.94;100.00;102558.47;5049067;28;20480;-71
2022/08/31 02:57:13;;;;;;;0.73;0.63;;;;;;;13.88;100.00;102526.78;5050040;28;20216;-71
2022/08/31 02:59:39;;;;;;;1.00;0.70;;;;;;;14.04;100.00;102554.69;5045485;28;20191;-71
2022/08/31 03:02:04;;;;;;;0.60;0.60;;;;;;;13.26;100.00;102463.00;5048992;28;20190;-71
2022/08/31 03:04:29;;;;;;;0.70;0.70;;;;;;;13.77;100.00;102557.72;5030849;28;20241;-71
2022/08/31 03:06:56;;;;;;;0.83;0.60;;;;;;;13.63;100.00;102536.09;5047670;28;20203;-71
2022/08/31 03:09:21;;;;;;;0.90;0.80;;;;;;;13.37;100.00;102469.00;5047096;28;20196;-72
2022/08/31 03:11:47;;;;;;;0.60;0.60;;;;;;;13.05;100.00;102443.88;5048148;28;20484;-71
2022/08/31 03:14:13;;;;;;;0.87;0.77;;;;;;;13.60;100.00;102539.97;5028443;28;20550;-72
2022/08/31 03:16:39;;;;;;;1.27;0.70;;;;;;;13.65;100.00;102518.69;5048181;28;20258;-71
2022/08/31 03:19:06;;;;;;;1.20;0.90;;;;;;;14.02;100.00;102558.38;5046405;28;20267;-71
2022/08/31 03:21:32;;;;;;;1.23;0.73;;;;;;;13.14;100.00;102439.28;5021460;28;20442;-71
2022/08/31 03:23:57;;;;;;;1.07;0.70;;;;;;;13.12;100.00;102397.19;5030066;28;20462;-71
2022/08/31 03:26:23;;;;;;;0.80;0.70;;;;;;;13.10;100.00;102466.59;5048377;28;20195;-74
2022/08/31 03:28:48;;;;;;;1.30;0.70;;;;;;;12.84;100.00;102449.84;5047003;28;20226;-71
2022/08/31 03:31:13;;;;;;;0.70;0.60;;;;;;;13.29;100.00;102499.53;5029925;28;20237;-71
2022/08/31 03:33:39;;;;;;;0.90;0.70;;;;;;;13.12;100.00;102479.88;5049879;28;20187;-71
2022/08/31 03:36:04;;;;;;;0.90;0.70;;;;;;;13.54;100.00;102551.47;5048191;28;20191;-71
2022/08/31 03:38:30;;;;;;;0.83;0.73;;;;;;;13.88;100.00;102556.47;5028499;28;21069;-71
2022/08/31 03:40:56;;;;;;;4.83;0.80;;;;;;;13.33;100.00;102463.94;5048676;28;20180;-71
2022/08/31 03:43:21;;;;;;;1.17;0.80;;;;;;;13.82;100.00;102559.03;5047973;28;20203;-71
2022/08/31 03:45:48;;;;;;;0.77;0.60;;;;;;;12.91;100.00;102415.84;5046523;28;20192;-71
2022/08/31 03:48:13;;;;;;;0.60;0.50;;;;;;;13.56;100.00;102554.81;5030311;28;20211;-71
2022/08/31 03:50:40;;;;;;;0.70;0.60;;;;;;;13.39;100.00;102559.44;5029191;28;20495;-71
2022/08/31 03:53:07;;;;;;;1.03;0.70;;;;;;;13.48;100.00;102568.31;5048039;28;20528;-71
2022/08/31 03:55:35;;;;;;;1.03;0.80;;;;;;;13.38;100.00;102568.53;5048468;28;20422;-71
2022/08/31 03:58:00;;;;;;;0.83;0.80;;;;;;;12.77;100.00;102413.88;5048644;28;20474;-73
2022/08/31 04:00:26;;;;;;;1.33;0.80;;;;;;;13.41;100.00;102568.19;5045700;28;20987;-73
2022/08/31 04:02:52;;;;;;;0.90;0.80;;;;;;;13.03;100.00;102491.69;5048949;28;20509;-73
2022/08/31 04:05:17;;;;;;;3.23;0.90;;;;;;;13.26;100.00;102516.88;5052149;28;20180;-73
2022/08/31 04:07:43;;;;;;;1.40;0.70;;;;;;;13.13;100.00;102500.41;5033712;28;20215;-73
2022/08/31 04:10:11;;;;;;;2.37;0.97;;;;;;;13.14;100.00;102539.81;5032753;28;20194;-73
2022/08/31 04:12:36;;;;;;;2.20;0.80;;;;;;;12.38;100.00;102449.66;5050864;28;20599;-73
2022/08/31 04:15:02;;;;;;;2.17;0.83;;;;;;;13.27;100.00;102575.16;5049438;28;20437;-73
2022/08/31 04:17:28;;;;;;;1.03;0.80;;;;;;;12.57;100.00;102460.03;5033274;28;20203;-73
2022/08/31 04:19:53;;;;;;;1.13;0.80;;;;;;;12.48;100.00;102457.56;5050305;28;20521;-73
2022/08/31 04:22:18;;;;;;;1.33;0.77;;;;;;;12.15;100.00;102401.97;5046658;28;20551;-73
2022/08/31 04:24:44;;;;;;;0.97;0.70;;;;;;;13.19;100.00;102583.25;5051375;28;20288;-73
2022/08/31 04:27:09;;;;;;;1.20;1.00;;;;;;;13.28;100.00;102579.53;5051013;28;20584;-73
2022/08/31 04:29:34;;;;;;;1.17;0.70;;;;;;;12.50;100.00;102455.50;5049309;28;20230;-73
2022/08/31 04:32:00;;;;;;;1.00;0.80;;;;;;;12.90;100.00;102535.31;5046882;28;20244;-73
2022/08/31 04:34:25;;;;;;;1.00;0.90;;;;;;;13.12;100.00;102569.59;5040350;28;20184;-73
2022/08/31 04:36:51;;;;;;;0.90;0.83;;;;;;;12.09;100.00;102437.63;5051085;28;20186;-73
2022/08/31 04:39:17;;;;;;;1.90;0.93;;;;;;;12.52;100.00;102507.31;5051193;28;20217;-73
2022/08/31 04:41:43;;;;;;;2.37;0.80;;;;;;;13.11;100.00;102594.88;5049183;28;20191;-73
2022/08/31 04:44:10;;;;;;;2.90;1.10;;;;;;;12.55;100.00;102482.75;5051136;28;20466;-73
2022/08/31 04:46:37;;;;;;;0.90;0.77;;;;;;;13.17;100.00;102595.22;5049306;28;20525;-73
2022/08/31 04:49:03;;;;;;;0.80;0.80;;;;;;;13.30;100.00;102603.59;5051036;28;20422;-73
2022/08/31 04:51:34;;;;;;;1.53;0.80;;;;;;;13.12;100.00;102591.16;5030745;28;20490;-73
2022/08/31 04:53:59;;;;;;;1.57;0.90;;;;;;;12.97;100.00;102575.91;5050932;28;20426;-73
2022/08/31 04:56:28;;;;;;;1.40;1.30;;;;;;;13.00;100.00;102576.38;5051893;28;20430;-73
2022/08/31 04:58:59;;;;;;;2.53;0.80;;;;;;;12.87;100.00;102586.84;5050536;28;20732;-73
2022/08/31 05:01:27;;;;;;;0.80;0.70;;;;;;;12.33;100.00;102476.25;5049359;28;20449;-73
2022/08/31 05:03:56;;;;;;;1.27;0.87;;;;;;;13.07;100.00;102533.44;5047991;28;20485;-73
2022/08/31 05:06:27;;;;;;;1.00;0.80;;;;;;;13.42;100.00;102602.19;5032665;28;20418;-73
2022/08/31 05:08:54;;;;;;;1.00;0.90;;;;;;;13.21;100.00;102569.59;5049327;28;20449;-73
2022/08/31 05:11:20;;;;;;;1.87;0.87;;;;;;;12.74;100.00;102484.22;5049860;28;20473;-73
2022/08/31 05:13:46;;;;;;;0.90;0.80;;;;;;;13.29;100.00;102601.94;5051312;28;21242;-73
2022/08/31 05:16:14;;;;;;;1.97;0.87;;;;;;;13.46;100.00;102590.06;5048969;28;20933;-73
2022/08/31 05:18:42;;;;;;;1.17;0.80;;;;;;;12.76;100.00;102511.84;5051199;28;20449;-73
2022/08/31 05:21:23;;;;;;;0.80;0.80;;;;;;;13.29;100.00;102610.00;5049616;28;20418;-73
2022/08/31 05:23:49;;;;;;;1.00;0.90;;;;;;;12.88;100.00;102534.69;5047742;28;20488;-73
2022/08/31 05:26:19;;;;;;;1.00;0.80;;;;;;;13.21;100.00;102589.28;5038070;28;20997;-73
2022/08/31 05:28:46;;;;;;;1.80;1.27;;;;;;;12.42;100.00;102465.28;5048681;28;20215;-73
2022/08/31 05:31:12;;;;;;;0.60;0.60;;;;;;;13.45;100.00;102631.53;5047342;28;20434;-73
2022/08/31 05:33:38;;;;;;;1.20;1.00;;;;;;;12.63;100.00;102458.50;5049849;28;20964;-73
2022/08/31 05:36:04;;;;;;;1.00;0.87;;;;;;;13.53;100.00;102603.69;5032374;28;20418;-73
2022/08/31 05:38:30;;;;;;;1.30;1.17;;;;;;;12.58;100.00;102423.19;5048766;28;20453;-73
2022/08/31 05:40:57;;;;;;;0.97;0.80;;;;;;;12.91;100.00;102485.84;5047579;28;20533;-74
2022/08/31 05:43:23;;;;;;;1.03;0.93;;;;;;;13.56;100.00;102617.66;5049360;28;20687;-74
2022/08/31 05:45:48;;;;;;;1.00;0.90;;;;;;;13.59;100.00;102602.97;5047576;28;20847;-73
2022/08/31 05:48:14;;;;;;;1.17;0.97;;;;;;;13.85;100.00;102618.84;5033238;28;20206;-74
2022/08/31 05:50:40;;;;;;;1.13;1.03;;;;;;;14.08;100.00;102624.28;5049886;28;20184;-74
2022/08/31 05:53:06;;;;;;;3.33;0.93;;;;;;;14.06;100.00;102625.47;5029086;28;20814;-74
2022/08/31 05:55:32;;;;;;;1.20;1.00;;;;;;;13.43;100.00;102527.59;5048785;28;20211;-74
2022/08/31 05:57:58;;;;;;;1.00;0.90;;;;;;;14.36;100.00;102627.31;5050824;28;20497;-74
2022/08/31 06:00:24;;;;;;;1.73;0.80;;;;;;;14.38;100.00;102629.84;5048692;28;20450;-74
2022/08/31 06:02:50;;;;;;;0.90;0.90;;;;;;;14.42;100.00;102626.56;5046583;28;20474;-74
2022/08/31 06:05:15;;;;;;;1.17;0.90;;;;;;;14.38;100.00;102652.25;5049465;28;20532;-74
2022/08/31 06:07:41;;;;;;;1.20;0.90;;;;;;;14.59;100.00;102638.13;5048404;28;20450;-74
2022/08/31 06:10:08;;;;;;;1.30;0.90;;;;;;;14.26;100.00;102599.69;5049966;28;20641;-74
2022/08/31 06:12:34;;;;;;;0.80;0.60;;;;;;;13.90;100.00;102532.84;5047292;28;20267;-74
2022/08/31 06:15:04;;;;;;;2.20;1.00;;;;;;;13.78;100.00;102547.78;5049638;28;20504;-74
2022/08/31 06:17:31;;;;;;;1.53;0.87;;;;;;;14.51;100.00;102645.41;5028603;28;20545;-74
2022/08/31 06:19:57;;;;;;;1.53;0.93;;;;;;;14.76;100.00;102649.63;5048469;28;20482;-74
2022/08/31 06:22:25;;;;;;;1.10;0.80;;;;;;;14.82;100.00;102650.75;5048442;28;20484;-74
2022/08/31 06:24:51;;;;;;;1.30;1.00;;;;;;;14.48;100.00;102601.53;5036822;28;20470;-75
2022/08/31 06:27:17;;;;;;;2.97;1.17;;;;;;;15.05;100.00;102648.84;5046278;28;20488;-74
2022/08/31 06:29:43;;;;;;;1.80;1.00;;;;;;;15.15;100.00;102618.84;5029539;28;20184;-74
2022/08/31 06:32:09;;;;;;;3.33;1.50;;;;;;;14.48;100.00;102546.72;5047570;28;20956;-74
2022/08/31 06:34:35;;;;;;;1.40;1.03;;;;;;;15.40;100.00;102640.19;5048394;28;20426;-74
2022/08/31 06:37:00;;;;;;;1.03;0.90;;;;;;;15.21;100.00;102599.16;5048107;28;20203;-74
2022/08/31 06:39:26;;;;;;;1.83;1.00;;;;;;;14.70;100.00;102536.91;5049863;28;20475;-74
2022/08/31 06:41:51;;;;;;;4.40;1.00;;;;;;;15.66;100.00;102643.25;5047176;28;20191;-74
2022/08/31 06:44:19;;;;;;;2.63;1.13;;;;;;;15.79;100.00;102639.88;5047983;28;20204;-74
2022/08/31 06:46:45;;;;;;;1.23;1.13;;;;;;;15.30;100.00;102557.50;5030506;28;20206;-74
2022/08/31 06:49:11;;;;;;;1.87;1.20;;;;;;;15.10;100.00;102508.59;5049453;28;20423;-74
2022/08/31 06:51:37;;;;;;;1.37;1.00;;;;;;;16.04;100.00;102632.28;5028107;28;20652;-74
2022/08/31 06:54:07;;;;;;;2.53;0.83;;;;;;;16.07;100.00;102648.13;5050285;28;20476;-74
2022/08/31 06:56:34;;;;;;;1.00;0.90;;;;;;;15.45;100.00;102540.41;5049371;28;20262;-74
2022/08/31 06:59:00;;;;;;;1.50;1.20;;;;;;;15.63;100.00;102567.88;5049329;28;20652;-71
2022/08/31 07:01:29;;;;;;;1.30;0.90;;;;;;;16.15;100.00;102634.47;5047127;28;21048;-71
2022/08/31 07:03:56;;;;;;;2.70;0.93;;;;;;;16.40;100.00;102642.22;5048495;28;20458;-71
2022/08/31 07:06:24;;;;;;;2.00;0.87;;;;;;;16.38;100.00;102634.28;5048833;28;20433;-71
2022/08/31 07:08:51;;;;;;;1.80;0.90;;;;;;;16.36;100.00;102608.44;5048955;28;20442;-71
2022/08/31 07:11:20;;;;;;;1.70;0.80;;;;;;;16.56;100.00;102625.72;5048646;28;20507;-71
2022/08/31 07:13:46;;;;;;;1.57;0.80;;;;;;;16.62;100.00;102633.03;5045659;28;20495;-71
2022/08/31 07:16:14;;;;;;;0.90;0.80;;;;;;;16.47;100.00;102595.22;5046535;28;21041;-74
2022/08/31 07:18:40;;;;;;;0.83;0.70;;;;;;;16.85;100.00;102637.44;5048896;28;20533;-73
2022/08/31 07:21:22;;;;;;;1.63;0.80;;;;;;;16.76;100.00;102619.63;5046972;28;20503;-73
2022/08/31 07:23:48;;;;;;;2.50;0.93;;;;;;;16.49;100.00;102593.16;5048006;28;20464;-73
2022/08/31 07:26:21;;;;;;;2.30;0.90;;;;;;;16.63;100.00;102594.06;5048102;28;20430;-74
2022/08/31 07:28:52;;;;;;;1.10;0.80;;;;;;;17.00;100.00;102642.75;5045754;28;20968;-74
2022/08/31 07:31:22;;;;;;;0.80;0.67;;;;;;;16.86;100.00;102631.81;5046243;28;20521;-71
2022/08/31 07:33:49;;;;;;;1.53;0.67;;;;;;;16.83;100.00;102606.97;5047637;28;20407;-71
2022/08/31 07:36:15;;;;;;;0.97;0.80;;;;;;;16.53;100.00;102541.28;5048619;28;20765;-71
2022/08/31 07:44:12;;;;;;;0.83;0.67;;;;;;;17.31;100.00;102636.91;5052594;28;20480;-71
2022/08/31 07:46:38;;;;;;;1.13;0.60;;;;;;;17.21;100.00;102617.44;5049930;28;20814;-71
2022/08/31 07:49:12;;;;;;;1.30;0.70;;;;;;;17.36;100.00;102626.31;5050618;28;20499;-71
2022/08/31 07:51:50;;;;;;;2.00;0.60;;;;;;;17.45;100.00;102619.66;5050785;28;20184;-71
2022/08/31 07:54:26;;;;;;;1.30;0.90;;;;;;;17.23;100.00;102578.25;5052625;28;20501;-71
2022/08/31 07:56:59;;;;;;;0.90;0.80;;;;;;;17.41;100.00;102612.97;5051917;28;20487;-71
2022/08/31 07:59:25;;;;;;;0.70;0.60;;;;;;;17.01;100.00;102526.00;5025463;28;20437;-71
2022/08/31 08:01:54;;;;;;;1.10;0.60;;;;;;;17.41;100.00;102580.41;5048829;28;20449;-71
2022/08/31 08:04:25;;;;;;;0.90;0.67;;;;;;;17.57;100.00;102595.50;5051610;28;20497;-71
2022/08/31 08:06:55;;;;;;;0.90;0.50;;;;;;;17.08;100.00;102505.19;5050646;28;20453;-71
2022/08/31 08:09:28;;;;;;;1.00;0.60;;;;;;;17.74;100.00;102613.13;5052045;28;20434;-71
2022/08/31 08:11:56;;;;;;;1.50;0.70;;;;;;;17.65;100.00;102608.03;5048959;28;20441;-71
2022/08/31 08:14:24;;;;;;;2.73;0.77;;;;;;;17.84;100.00;102624.44;5028251;28;20431;-72
2022/08/31 08:16:49;;;;;;;1.63;0.70;;;;;;;17.82;100.00;102614.84;5050867;28;20433;-70
2022/08/31 08:19:15;;;;;;;0.60;0.60;;;;;;;17.81;100.00;102632.16;5049572;28;20440;-70
2022/08/31 08:21:42;;;;;;;1.10;0.70;;;;;;;17.65;100.00;102587.19;5050602;28;20723;-71
2022/08/31 08:24:09;;;;;;;4.03;0.70;;;;;;;18.00;100.00;102623.25;5033836;28;20871;-71
2022/08/31 08:26:34;;;;;;;0.80;0.70;;;;;;;18.10;100.00;102617.41;5048219;28;20805;-71
2022/08/31 08:29:02;;;;;;;2.20;0.70;;;;;;;18.06;100.00;102597.97;5051424;28;20449;-71
2022/08/31 08:31:27;;;;;;;1.20;0.70;;;;;;;17.64;100.00;102506.81;5034132;28;20512;-71
2022/08/31 08:33:53;;;;;;;0.73;0.60;;;;;;;17.97;100.00;102568.53;5049861;28;20521;-71
2022/08/31 08:36:19;;;;;;;0.70;0.70;;;;;;;18.17;100.00;102621.00;5031121;28;20183;-71
2022/08/31 08:38:47;;;;;;;1.10;0.60;;;;;;;17.74;100.00;102512.69;5051521;28;20735;-71
2022/08/31 08:41:22;;;;;;;0.90;0.77;;;;;;;18.63;100.00;102616.63;5032483;28;20195;-71
2022/08/31 08:43:53;;;;;;;2.30;0.70;;;;;;;18.50;100.00;102615.56;5031448;28;21011;-71
2022/08/31 08:46:38;;;;;;;1.03;0.60;;;;;;;18.11;100.00;102574.78;5050478;28;20984;-71
2022/08/31 08:49:34;;;;;;;0.60;0.50;;;;;;;18.40;100.00;102614.31;5048069;28;20480;-71
2022/08/31 08:52:29;;;;;;;0.70;0.60;;;;;;;18.23;100.00;102627.47;5032672;28;20434;-70
2022/08/31 08:55:01;;;;;;;0.90;0.60;;;;;;;18.31;100.00;102621.81;5039515;28;20442;-71
2022/08/31 08:57:31;;;;;;;1.50;0.70;;;;;;;17.93;100.00;102550.97;5051623;28;20449;-71
2022/08/31 09:00:05;;;;;;;0.60;0.50;;;;;;;18.25;100.00;102626.22;5049647;28;20436;-71
2022/08/31 09:02:40;;;;;;;0.60;0.60;;;;;;;18.40;100.00;102625.19;5048310;28;20422;-71
2022/08/31 09:05:50;;;;;;;1.00;0.80;;;;;;;18.41;100.00;102624.97;5032340;28;21021;-71
2022/08/31 09:08:58;;;;;;;0.70;0.60;;;;;;;18.63;100.00;102619.34;4962884;28;20487;-71
2022/08/31 09:11:34;;;;;;;0.60;0.60;;;;;;;18.81;100.00;102602.44;5049296;28;20832;-71
2022/08/31 09:14:35;;;;;;;0.80;0.60;;;;;;;18.93;100.00;102614.34;5049268;28;20926;-71
2022/08/31 09:17:15;;;;;;;0.70;0.60;;;;;;;19.03;100.00;102612.00;5050574;28;20448;-74
2022/08/31 09:22:33;;;;;;;0.80;0.60;;;;;;;19.12;100.00;102597.16;5049793;28;20994;-72
2022/08/31 09:24:59;;;;;;;0.77;0.63;;;;;;;19.01;100.00;102553.47;5029882;28;20835;-72
2022/08/31 09:27:55;;;;;;;0.60;0.50;;;;;;;19.43;100.00;102601.84;5049847;28;20519;-72
2022/08/31 09:30:40;;;;;;;1.00;0.70;;;;;;;19.38;100.00;102593.53;5051077;28;20433;-72
2022/08/31 09:33:06;;;;;;;0.90;0.90;;;;;;;19.24;100.00;102604.63;5047271;28;20413;-72
2022/08/31 09:35:40;;;;;;;0.80;0.70;;;;;;;19.30;100.00;102584.75;5029847;28;20784;-73
2022/08/31 09:38:15;;;;;;;0.70;0.70;;;;;;;19.41;100.00;102573.19;5049779;28;20441;-72
2022/08/31 09:40:47;;;;;;;0.80;0.60;;;;;;;19.69;100.00;102607.44;5048022;28;20437;-72
2022/08/31 09:43:26;;;;;;;0.60;0.60;;;;;;;18.92;100.00;102452.28;5033008;28;20434;-72
2022/08/31 09:46:08;;;;;;;0.97;0.50;;;;;;;19.60;100.00;102561.38;5028121;28;20441;-73
2022/08/31 09:48:43;;;;;;;0.57;0.57;;;;;;;19.55;100.00;102593.84;5030569;28;20827;-72
2022/08/31 09:51:10;;;;;;;1.20;0.70;;;;;;;19.52;100.00;102591.56;5050159;28;20417;-73
2022/08/31 09:56:26;;;;;;;0.93;0.50;;;;;;;19.63;100.00;102582.72;5047513;28;20437;-72
2022/08/31 09:59:01;;;;;;;0.73;0.53;;;;;;;19.40;100.00;102564.19;5049275;28;20457;-72
2022/08/31 10:01:41;;;;;;;2.00;0.50;;;;;;;19.77;100.00;102590.84;5049556;28;20406;-72
2022/08/31 10:04:19;;;;;;;0.50;0.50;;;;;;;19.81;100.00;102573.84;5048238;28;20465;-72
2022/08/31 10:07:05;;;;;;;0.60;0.60;;;;;;;19.67;100.00;102579.59;5032466;28;20788;-72
2022/08/31 10:09:37;;;;;;;1.83;0.60;;;;;;;19.50;100.00;102582.78;5050068;28;20511;-72
2022/08/31 10:12:08;;;;;;;1.47;0.70;;;;;;;18.98;100.00;102492.19;5049389;28;20463;-72
2022/08/31 10:14:49;;;;;;;0.70;0.60;;;;;;;19.82;100.00;102572.81;5022815;28;20438;-73
2022/08/31 10:17:29;;;;;;;0.83;0.53;;;;;;;19.80;100.00;102530.53;5047939;28;20829;-72
2022/08/31 10:20:06;;;;;;;0.70;0.50;;;;;;;20.18;100.00;102565.03;5047487;28;20449;-72
2022/08/31 10:22:45;;;;;;;0.70;0.50;;;;;;;20.13;100.00;102538.44;5029476;28;20414;-72
2022/08/31 10:25:40;;;;;;;1.03;0.60;;;;;;;20.40;100.00;102565.50;5048638;28;20519;-72
2022/08/31 10:28:27;;;;;;;0.80;0.50;;;;;;;20.37;100.00;102565.94;5048979;28;20456;-72
2022/08/31 10:31:02;;;;;;;0.70;0.70;;;;;;;20.25;100.00;102560.34;5045343;28;20446;-72
2022/08/31 10:36:32;;;;;;;0.90;0.70;;;;;;;20.18;100.00;102574.03;5049175;28;20461;-72
2022/08/31 10:38:58;;;;;;;0.87;0.60;;;;;;;19.56;100.00;102486.66;5046446;28;20896;-72
2022/08/31 10:41:35;;;;;;;1.53;0.70;;;;;;;20.12;100.00;102564.03;5030633;28;20453;-72
2022/08/31 10:44:22;;;;;;;1.40;0.53;;;;;;;19.91;100.00;102508.03;5047942;28;20199;-72
2022/08/31 10:47:01;;;;;;;0.80;0.60;;;;;;;20.36;100.00;102551.47;5048063;28;20495;-72
2022/08/31 10:49:28;;;;;;;0.90;0.77;;;;;;;20.38;100.00;102543.91;5029646;28;20477;-72
2022/08/31 10:52:09;;;;;;;0.60;0.50;;;;;;;20.09;100.00;102526.34;5029522;28;20448;-72
2022/08/31 10:55:04;;;;;;;0.73;0.50;;;;;;;20.44;100.00;102542.19;5046502;28;20489;-72
2022/08/31 10:57:44;;;;;;;0.83;0.60;;;;;;;20.47;100.00;102537.09;5028725;28;20454;-72
2022/08/31 11:03:30;;;;;;;0.90;0.50;;;;;;;20.17;100.00;102454.41;5048535;28;20406;-72
2022/08/31 11:06:07;;;;;;;0.60;0.50;;;;;;;20.90;100.00;102525.38;5044945;28;20855;-72
2022/08/31 11:08:56;;;;;;;1.20;0.60;;;;;;;20.84;100.00;102529.03;5048704;28;20446;-72
2022/08/31 11:11:34;;;;;;;0.70;0.60;;;;;;;20.86;100.00;102526.91;5049457;28;20774;-72
2022/08/31 11:14:13;;;;;;;0.60;0.50;;;;;;;20.91;100.00;102518.84;5048357;28;20445;-72
2022/08/31 11:17:12;;;;;;;0.90;0.60;;;;;;;21.06;100.00;102523.09;5045925;28;20432;-72
2022/08/31 11:20:11;;;;;;;0.50;0.40;;;;;;;21.10;100.00;102516.13;5046479;28;20434;-72
2022/08/31 11:23:00;;;;;;;0.60;0.50;;;;;;;21.18;100.00;102518.56;5047946;28;20476;-72
2022/08/31 11:25:46;;;;;;;0.90;0.50;;;;;;;21.18;100.00;102515.84;5047107;28;20466;-74
2022/08/31 11:28:27;;;;;;;0.60;0.50;;;;;;;21.35;100.00;102510.56;5030524;28;21094;-74
2022/08/31 11:30:54;;;;;;;1.10;0.60;;;;;;;21.19;100.00;102509.31;5047809;28;20421;-72
2022/08/31 11:33:26;;;;;;;0.60;0.53;;;;;;;21.36;100.00;102531.34;5035862;28;20489;-72
2022/08/31 11:36:02;;;;;;;0.90;0.60;;;;;;;21.42;100.00;102506.72;5045012;28;20449;-72
2022/08/31 11:38:50;;;;;;;2.30;0.77;;;;;;;21.60;100.00;102508.56;5047639;28;20953;-72
2022/08/31 11:41:35;;;;;;;1.37;0.60;;;;;;;21.69;100.00;102511.78;5047643;28;20492;-72
2022/08/31 11:44:03;;;;;;;2.20;0.50;;;;;;;21.13;100.00;102403.81;5022578;28;20518;-72
2022/08/31 11:46:40;;;;;;;0.90;0.67;;;;;;;21.74;100.00;102498.28;5046215;28;20441;-73
2022/08/31 11:49:09;;;;;;;0.60;0.60;;;;;;;21.22;100.00;102433.25;5043295;28;21045;-72
2022/08/31 11:51:36;;;;;;;0.60;0.50;;;;;;;21.83;100.00;102502.34;5047312;28;20422;-71